Aeroporto :
LOGIN :

Iscrizione | Disclaimer

   EN    FR    IT 

 










Sommario :    VFR   VFR Marginale   IFR   IFR Intensivo   IFR Molto Intensivo
Visibilità : 
Base nubi : 
>= 8 km
>= 3000ft
5 / 8 km
1000 / 3000 ft
1500m / 5 km
500 / 1000 ft
800 / 1500m
200 / 500 ft
< 800m
< 200 ft
Simboli :   Temporali  Nebbia  Neve Forte  Precipitazioni Forti  Vento > 20 kt
SIGMETs :   Varie  Temporali  Ghiacco  Turbolenza  Onda orograficha  Ceneri Vulcaniche






- Altitudine del aeroporto : 187 ft


ETNW - Wunstorf AB

ULTIMO METAR :
  • 291320Z 21018G28KT 9999 FEW100 BKN210 14/05 Q0988 BLU+

METARs OBSOLETI :
  • 291220Z 18014KT 9999 SCT100 BKN190 13/05 Q0990 BLU
  • 291120Z 18011KT 9999 BKN190 12/06 Q0991 BLU

TAF COR TAF ETNW
Valido dal 29 a 12 ore il 01 a 12 ore UTC


291135Z 2912/0112 18015G25KT 9999 NSW FEW020 BKN180
BECMG 2915/2917 23020G30KT 8000 NSW BKN040
TEMPO 2917/2924 24025G45KT 3000 SHRA BKN010 BKN030CB
PROB30 2918/2921 25030G50KT 1000 TSGS BKN007 BKN020CB BY ETGL



MetMap, La meteo Aeronautica in un colpo d'occhio ! - Copyright ORBIFLY Dicembre 2007 - Disclaimer

ORBIFLY MET'MAP TEAM :

Programmazione e sviluppo : Alexandra Zaïnal
Concezione : Baudouin d'Aumeries
Aiuto per la programmazione : Marc-Olivier Méhu
Supporto tecnico e logistico : Manuel Goepfert
Aiuto per la traduzione : Arnaldo La Scala

Contatto : metmap@orbifly.com




FONTI E CREDITI :

   NOAA